Time;durP1;ratioP1;P1;durP2;ratioP2;P2;SDS_P1;SDS_P2;PMS_P1;PMS_P2;Temp;Humidity;BMP_temperature;BMP_pressure;BME280_temperature;BME280_humidity;BME280_pressure;Samples;Min_cycle;Max_cycle;Signal;HPM_P1;HPM_P2
2021/09/24 00:00:32;;;;;;;17.33;4.70;;;14.00;98.30;;;;;;5192540;22;20403;-80
2021/09/24 00:02:35;;;;;;;18.27;4.43;;;14.10;98.30;;;;;;5192587;22;20433;-81
2021/09/24 00:04:38;;;;;;;16.43;4.57;;;14.00;98.30;;;;;;5192482;22;20458;-81
2021/09/24 00:06:42;;;;;;;11.67;4.03;;;14.00;98.30;;;;;;5201420;22;20517;-82
2021/09/24 00:08:45;;;;;;;14.60;4.23;;;14.00;98.30;;;;;;5200561;22;20446;-81
2021/09/24 00:10:48;;;;;;;18.63;4.20;;;14.00;98.30;;;;;;5192230;22;20983;-82
2021/09/24 00:12:51;;;;;;;13.43;3.97;;;13.90;98.30;;;;;;5200718;22;20796;-82
2021/09/24 00:14:54;;;;;;;20.47;4.17;;;13.90;98.30;;;;;;5192160;22;20517;-83
2021/09/24 00:16:58;;;;;;;13.13;4.80;;;13.90;98.30;;;;;;5192720;22;20433;-82
2021/09/24 00:19:01;;;;;;;12.80;4.50;;;13.90;98.30;;;;;;5192096;22;20442;-82
2021/09/24 00:21:07;;;;;;;11.83;4.00;;;13.80;98.30;;;;;;5200428;22;20534;-82
2021/09/24 00:23:10;;;;;;;17.20;3.60;;;13.80;98.30;;;;;;5200978;22;20909;-83
2021/09/24 00:25:13;;;;;;;11.63;4.30;;;13.80;98.30;;;;;;5200653;22;20434;-82
2021/09/24 00:27:16;;;;;;;19.70;4.40;;;13.80;98.30;;;;;;5192953;22;20433;-83
2021/09/24 00:29:19;;;;;;;13.53;3.60;;;13.80;98.30;;;;;;5200142;22;20437;-81
2021/09/24 00:31:22;;;;;;;12.90;4.10;;;13.70;98.30;;;;;;5200495;22;20418;-82
2021/09/24 00:33:28;;;;;;;14.80;4.27;;;13.70;98.30;;;;;;5192153;22;20401;-81
2021/09/24 00:35:31;;;;;;;13.00;4.47;;;13.70;98.30;;;;;;5200193;22;20446;-82
2021/09/24 00:37:34;;;;;;;15.23;4.13;;;13.70;98.30;;;;;;5200185;22;20454;-83
2021/09/24 00:39:37;;;;;;;14.50;4.50;;;13.70;98.30;;;;;;5191670;22;20505;-82
2021/09/24 00:41:42;;;;;;;16.20;5.00;;;13.60;98.30;;;;;;5191884;22;20435;-81
2021/09/24 00:43:45;;;;;;;10.70;3.40;;;13.60;98.30;;;;;;5200568;22;20415;-81
2021/09/24 00:45:48;;;;;;;17.27;4.20;;;13.50;98.30;;;;;;5200571;22;20427;-82
2021/09/24 00:47:51;;;;;;;11.77;3.57;;;13.40;98.30;;;;;;5192137;22;20854;-83
2021/09/24 00:49:56;;;;;;;19.07;4.10;;;13.30;98.30;;;;;;5192163;22;20443;-82
2021/09/24 00:51:59;;;;;;;16.87;3.90;;;13.30;98.30;;;;;;5191239;22;20430;-81
2021/09/24 00:54:03;;;;;;;14.03;5.00;;;13.40;98.30;;;;;;5191842;22;20434;-83
2021/09/24 00:56:08;;;;;;;16.80;5.90;;;13.30;98.30;;;;;;5200604;22;20435;-82
2021/09/24 00:58:11;;;;;;;10.40;3.83;;;13.30;98.30;;;;;;5191993;22;20747;-81
2021/09/24 01:00:16;;;;;;;17.30;6.00;;;13.30;98.30;;;;;;5191571;22;20447;-82
2021/09/24 01:02:20;;;;;;;14.90;5.27;;;13.40;98.30;;;;;;5191747;22;20938;-81
2021/09/24 01:04:25;;;;;;;19.37;4.50;;;13.40;98.30;;;;;;5191235;22;20434;-81
2021/09/24 01:06:30;;;;;;;10.37;3.40;;;13.40;98.30;;;;;;5199935;22;20419;-81
2021/09/24 01:08:33;;;;;;;14.03;4.33;;;13.40;98.30;;;;;;5199025;22;20985;-81
2021/09/24 01:10:36;;;;;;;19.90;4.80;;;13.40;98.30;;;;;;5199446;22;20415;-81
2021/09/24 01:12:39;;;;;;;14.07;4.30;;;13.30;98.30;;;;;;5190996;22;20776;-81
2021/09/24 01:14:42;;;;;;;16.33;4.30;;;13.20;98.30;;;;;;5191848;22;20486;-81
2021/09/24 01:16:45;;;;;;;7.83;3.50;;;13.20;98.30;;;;;;5191326;22;20433;-81
2021/09/24 01:18:48;;;;;;;17.37;4.73;;;13.20;98.30;;;;;;5190481;22;20459;-81
2021/09/24 01:20:55;;;;;;;13.70;3.53;;;13.10;98.30;;;;;;5190653;22;20466;-81
2021/09/24 01:23:00;;;;;;;14.27;4.83;;;13.00;98.30;;;;;;5190790;22;20415;-82
2021/09/24 01:25:10;;;;;;;13.47;4.10;;;13.00;98.30;;;;;;5191119;22;20419;-81
2021/09/24 01:27:13;;;;;;;12.87;4.30;;;13.00;98.30;;;;;;5199840;22;20407;-82
2021/09/24 01:29:16;;;;;;;24.40;5.20;;;13.00;98.30;;;;;;5198799;22;20431;-82
2021/09/24 01:31:19;;;;;;;16.07;4.27;;;13.00;98.30;;;;;;5191189;22;20864;-81
2021/09/24 01:33:22;;;;;;;15.87;5.70;;;13.00;98.30;;;;;;5199559;22;20509;-81
2021/09/24 01:35:25;;;;;;;14.67;4.00;;;12.90;98.30;;;;;;5199899;22;20768;-81
2021/09/24 01:37:28;;;;;;;20.20;4.80;;;12.90;98.30;;;;;;5200072;22;20423;-81
2021/09/24 01:39:32;;;;;;;14.70;4.30;;;12.90;98.30;;;;;;5190770;22;20447;-81
2021/09/24 01:41:38;;;;;;;12.10;4.27;;;12.80;98.30;;;;;;5191635;22;20431;-82
2021/09/24 01:43:41;;;;;;;20.83;5.07;;;12.80;98.30;;;;;;5199556;22;20888;-81
2021/09/24 01:45:44;;;;;;;17.77;5.00;;;12.80;98.30;;;;;;5191928;22;20433;-82
2021/09/24 01:47:48;;;;;;;19.43;6.10;;;12.80;98.30;;;;;;5191357;22;20510;-82
2021/09/24 01:49:51;;;;;;;12.10;4.23;;;12.70;98.30;;;;;;5199800;22;20435;-82
2021/09/24 01:51:54;;;;;;;16.40;4.93;;;12.70;98.30;;;;;;5190932;22;20434;-81
2021/09/24 01:53:57;;;;;;;17.47;4.70;;;12.70;98.30;;;;;;5198886;22;20458;-82
2021/09/24 01:56:02;;;;;;;17.90;4.40;;;12.70;98.30;;;;;;5199475;22;20768;-81
2021/09/24 01:58:05;;;;;;;14.47;4.53;;;12.70;98.30;;;;;;5190623;22;20431;-81
2021/09/24 02:00:11;;;;;;;20.90;5.03;;;12.70;98.30;;;;;;5198955;22;20442;-81
2021/09/24 02:02:14;;;;;;;18.60;5.10;;;12.60;98.30;;;;;;5191225;22;20449;-81
2021/09/24 02:04:18;;;;;;;13.20;4.10;;;12.60;98.30;;;;;;5199737;22;20419;-81
2021/09/24 02:06:21;;;;;;;17.17;5.20;;;12.60;98.30;;;;;;5199264;22;20418;-81
2021/09/24 02:08:24;;;;;;;20.90;6.67;;;12.50;98.30;;;;;;5199874;22;20815;-83
2021/09/24 02:10:27;;;;;;;22.80;4.53;;;12.50;98.30;;;;;;5191200;22;20934;-81
2021/09/24 02:12:31;;;;;;;10.30;4.73;;;12.50;98.30;;;;;;5191222;22;20518;-81
2021/09/24 02:14:35;;;;;;;26.30;5.40;;;12.40;98.30;;;;;;5199434;22;20770;-81
2021/09/24 02:16:39;;;;;;;19.47;5.30;;;12.40;98.30;;;;;;5199124;22;20768;-81
2021/09/24 02:18:42;;;;;;;20.43;5.13;;;12.40;98.30;;;;;;5199088;22;20466;-81
2021/09/24 02:20:45;;;;;;;17.77;4.67;;;12.30;98.30;;;;;;5190440;22;20439;-81
2021/09/24 02:22:48;;;;;;;14.13;5.23;;;12.30;98.30;;;;;;5198752;22;20419;-81
2021/09/24 02:24:51;;;;;;;15.80;5.90;;;12.40;98.30;;;;;;5190848;22;20494;-81
2021/09/24 02:26:54;;;;;;;18.43;4.20;;;12.40;98.30;;;;;;5199546;22;20498;-81
2021/09/24 02:28:58;;;;;;;15.80;7.00;;;12.40;98.30;;;;;;5198770;22;20970;-81
2021/09/24 02:31:01;;;;;;;30.30;5.63;;;12.30;98.30;;;;;;5199370;22;20497;-81
2021/09/24 02:33:04;;;;;;;17.83;4.70;;;12.20;98.30;;;;;;5190894;22;20430;-82
2021/09/24 02:35:08;;;;;;;23.37;5.40;;;12.20;98.30;;;;;;5199539;22;20484;-81
2021/09/24 02:37:11;;;;;;;16.53;4.90;;;12.20;98.30;;;;;;5199896;22;20423;-82
2021/09/24 02:39:14;;;;;;;18.40;5.50;;;12.20;98.30;;;;;;5191054;22;20487;-80
2021/09/24 02:41:17;;;;;;;18.13;6.20;;;12.20;98.30;;;;;;5191594;22;20917;-81
2021/09/24 02:43:20;;;;;;;18.63;4.60;;;12.20;98.30;;;;;;5200323;22;20423;-82
2021/09/24 02:45:25;;;;;;;15.07;4.50;;;12.20;98.30;;;;;;5200148;22;20429;-82
2021/09/24 02:47:28;;;;;;;15.33;3.83;;;12.20;98.30;;;;;;5191945;22;20435;-81
2021/09/24 02:49:31;;;;;;;23.93;5.50;;;12.10;98.30;;;;;;5200431;22;20512;-81
2021/09/24 02:51:34;;;;;;;13.80;4.67;;;12.10;98.30;;;;;;5200046;22;20430;-82
2021/09/24 02:53:37;;;;;;;20.43;5.40;;;12.10;98.30;;;;;;5199539;22;20423;-81
2021/09/24 02:55:40;;;;;;;17.53;4.60;;;12.10;98.30;;;;;;5191204;22;20485;-81
2021/09/24 02:57:43;;;;;;;24.00;5.50;;;12.10;98.30;;;;;;5191781;22;20511;-82
2021/09/24 02:59:46;;;;;;;18.63;5.03;;;12.00;98.30;;;;;;5199723;22;20453;-82
2021/09/24 03:01:52;;;;;;;26.03;7.33;;;12.00;98.30;;;;;;5191748;22;20767;-82
2021/09/24 03:03:55;;;;;;;18.20;5.00;;;12.00;98.30;;;;;;5200072;22;20427;-82
2021/09/24 03:05:59;;;;;;;15.17;5.10;;;11.90;98.30;;;;;;5191548;22;20481;-82
2021/09/24 03:08:03;;;;;;;21.03;5.57;;;11.90;98.30;;;;;;5191071;22;20510;-82
2021/09/24 03:10:07;;;;;;;22.83;5.57;;;11.80;98.30;;;;;;5199409;22;20454;-81
2021/09/24 03:12:10;;;;;;;16.20;6.20;;;11.80;98.30;;;;;;5199782;22;20505;-82
2021/09/24 03:14:13;;;;;;;18.87;4.57;;;11.80;98.30;;;;;;5199561;22;20826;-81
2021/09/24 03:16:19;;;;;;;18.30;4.60;;;11.80;98.30;;;;;;5199782;22;20501;-82
2021/09/24 03:18:23;;;;;;;25.73;4.87;;;11.70;98.30;;;;;;5191312;22;20430;-81
2021/09/24 03:20:26;;;;;;;29.63;6.27;;;11.70;98.30;;;;;;5193819;22;20454;-81
2021/09/24 03:22:29;;;;;;;20.23;5.20;;;11.70;98.30;;;;;;5195078;22;20750;-83
2021/09/24 03:24:32;;;;;;;23.63;4.97;;;11.70;98.30;;;;;;5203339;22;20504;-83
2021/09/24 03:26:35;;;;;;;23.07;5.07;;;11.70;98.30;;;;;;5196029;22;20459;-82
2021/09/24 03:28:38;;;;;;;16.90;5.83;;;11.60;98.30;;;;;;5194868;22;20478;-83
2021/09/24 03:30:41;;;;;;;19.63;4.87;;;11.60;98.30;;;;;;5195779;22;20437;-82
2021/09/24 03:32:45;;;;;;;19.90;5.20;;;11.50;98.30;;;;;;5196218;22;20923;-83
2021/09/24 03:34:50;;;;;;;19.50;6.17;;;11.50;98.30;;;;;;5200354;22;20431;-82
2021/09/24 03:36:53;;;;;;;19.60;5.37;;;11.40;98.30;;;;;;5195045;22;20484;-81
2021/09/24 03:38:56;;;;;;;23.30;5.77;;;11.40;98.30;;;;;;5194902;22;20529;-82
2021/09/24 03:40:59;;;;;;;16.40;5.57;;;11.30;98.30;;;;;;5195552;22;20426;-83
2021/09/24 03:43:02;;;;;;;21.23;5.70;;;11.30;98.30;;;;;;5195920;22;20525;-81
2021/09/24 03:45:06;;;;;;;24.40;6.90;;;11.30;98.30;;;;;;5195185;22;20454;-83
2021/09/24 03:47:09;;;;;;;26.20;7.10;;;11.30;98.30;;;;;;5193503;22;20446;-83
2021/09/24 03:49:12;;;;;;;16.80;4.63;;;11.30;98.30;;;;;;5194820;22;20457;-83
2021/09/24 03:51:16;;;;;;;25.23;6.13;;;11.30;98.30;;;;;;5195204;22;20505;-81
2021/09/24 03:53:19;;;;;;;22.60;6.00;;;11.30;98.30;;;;;;5194971;22;20449;-83
2021/09/24 03:55:22;;;;;;;18.17;5.57;;;11.40;98.30;;;;;;5195569;22;20782;-82
2021/09/24 03:57:28;;;;;;;19.60;4.77;;;11.30;98.30;;;;;;5195406;22;20677;-83
2021/09/24 03:59:31;;;;;;;15.40;4.57;;;11.30;98.30;;;;;;5203275;22;20522;-82
2021/09/24 04:01:34;;;;;;;14.67;4.90;;;11.40;98.30;;;;;;5195160;22;20427;-82
2021/09/24 04:03:37;;;;;;;24.33;6.10;;;11.40;98.30;;;;;;5195175;22;20908;-82
2021/09/24 04:05:40;;;;;;;16.70;4.67;;;11.40;98.30;;;;;;5196219;22;20430;-82
2021/09/24 04:07:44;;;;;;;21.87;6.60;;;11.40;98.30;;;;;;5195917;22;20427;-83
2021/09/24 04:09:47;;;;;;;25.73;5.70;;;11.40;98.30;;;;;;5202820;22;20442;-83
2021/09/24 04:11:50;;;;;;;17.33;4.90;;;11.40;98.30;;;;;;5192460;22;20430;-81
2021/09/24 04:13:53;;;;;;;17.97;4.57;;;11.40;98.30;;;;;;5192544;22;20431;-82
2021/09/24 04:15:56;;;;;;;16.87;5.87;;;11.40;98.30;;;;;;5200710;22;20461;-82
2021/09/24 04:17:59;;;;;;;28.97;6.20;;;11.40;98.30;;;;;;5192629;22;20954;-81
2021/09/24 04:20:03;;;;;;;18.53;4.30;;;11.40;98.30;;;;;;5192000;22;20447;-82
2021/09/24 04:22:06;;;;;;;15.00;5.30;;;11.40;98.30;;;;;;5192721;22;20426;-81
2021/09/24 04:24:10;;;;;;;21.93;6.87;;;11.40;98.30;;;;;;5193262;22;20538;-82
2021/09/24 04:26:14;;;;;;;19.53;5.30;;;11.40;98.30;;;;;;5193127;22;20423;-83
2021/09/24 04:28:17;;;;;;;17.87;6.47;;;11.40;98.30;;;;;;5193448;22;20423;-83
2021/09/24 04:30:20;;;;;;;19.27;5.83;;;11.40;98.30;;;;;;5204547;22;20884;-82
2021/09/24 04:32:24;;;;;;;16.70;4.97;;;11.40;98.30;;;;;;5196770;22;20505;-82
2021/09/24 04:34:28;;;;;;;16.03;4.47;;;11.50;98.30;;;;;;5196151;22;20454;-81
2021/09/24 04:36:31;;;;;;;15.90;4.50;;;11.50;98.30;;;;;;5197025;22;20453;-83
2021/09/24 04:38:34;;;;;;;15.17;4.57;;;11.50;98.30;;;;;;5195941;22;20429;-83
2021/09/24 04:40:39;;;;;;;17.17;4.00;;;11.40;98.30;;;;;;5197549;22;20427;-81
2021/09/24 04:42:42;;;;;;;23.70;6.60;;;11.40;98.30;;;;;;5192677;22;20434;-82
2021/09/24 04:44:45;;;;;;;21.50;5.77;;;11.40;98.30;;;;;;5192463;22;20430;-81
2021/09/24 04:46:48;;;;;;;25.50;5.80;;;11.40;98.30;;;;;;5193248;22;20423;-81
2021/09/24 04:48:51;;;;;;;20.27;4.53;;;11.40;98.30;;;;;;5193179;22;20489;-82
2021/09/24 04:50:54;;;;;;;15.80;5.33;;;11.40;98.30;;;;;;5201356;22;20748;-83
2021/09/24 04:52:57;;;;;;;16.00;4.60;;;11.40;98.30;;;;;;5201398;22;20462;-83
2021/09/24 04:55:00;;;;;;;18.07;5.17;;;11.30;98.30;;;;;;5201536;22;20917;-83
2021/09/24 04:57:05;;;;;;;20.03;5.10;;;11.30;98.30;;;;;;5201134;22;20842;-83
2021/09/24 04:59:08;;;;;;;16.00;4.80;;;11.40;98.30;;;;;;5192412;22;21023;-84
2021/09/24 05:01:10;;;;;;;21.77;5.37;;;11.40;98.30;;;;;;5192984;22;20422;-83
2021/09/24 05:03:15;;;;;;;17.70;4.80;;;11.30;98.30;;;;;;5193529;22;20423;-82
2021/09/24 05:05:18;;;;;;;27.30;6.60;;;11.30;98.30;;;;;;5193049;22;20509;-83
2021/09/24 05:07:21;;;;;;;21.63;5.83;;;11.30;98.30;;;;;;5193627;22;20450;-81
2021/09/24 05:09:24;;;;;;;17.27;4.87;;;11.30;98.30;;;;;;5202145;22;20447;-83
2021/09/24 05:11:27;;;;;;;29.57;5.73;;;11.30;98.30;;;;;;5202136;22;20514;-83
2021/09/24 05:13:31;;;;;;;21.20;7.20;;;11.30;98.30;;;;;;5193948;22;20427;-83
2021/09/24 05:15:34;;;;;;;20.97;5.10;;;11.30;98.30;;;;;;5202869;22;20914;-84
2021/09/24 05:17:37;;;;;;;16.23;4.80;;;11.30;98.30;;;;;;5201951;22;20442;-84
2021/09/24 05:19:40;;;;;;;15.17;5.13;;;11.30;98.30;;;;;;5193781;22;20451;-82
2021/09/24 05:21:43;;;;;;;17.53;4.77;;;11.30;98.30;;;;;;5194846;22;20867;-83
2021/09/24 05:23:46;;;;;;;27.10;5.67;;;11.20;98.30;;;;;;5195343;22;20435;-84
2021/09/24 05:25:49;;;;;;;28.90;6.33;;;11.30;98.30;;;;;;5195320;22;20545;-83
2021/09/24 05:27:52;;;;;;;22.17;5.00;;;11.20;98.30;;;;;;5195692;22;20514;-83
2021/09/24 05:29:57;;;;;;;22.27;5.53;;;11.20;98.30;;;;;;5202431;22;20509;-83
2021/09/24 05:32:00;;;;;;;22.10;5.30;;;11.20;98.30;;;;;;5195736;22;20502;-84
2021/09/24 05:34:04;;;;;;;20.97;7.30;;;11.30;98.30;;;;;;5196064;22;20439;-82
2021/09/24 05:36:11;;;;;;;17.00;5.67;;;11.30;98.30;;;;;;5204439;22;20529;-83
2021/09/24 05:38:14;;;;;;;25.27;6.03;;;11.30;98.30;;;;;;5195945;22;20437;-82
2021/09/24 05:40:17;;;;;;;24.43;4.93;;;11.30;98.30;;;;;;5204130;22;20438;-83
2021/09/24 05:42:20;;;;;;;20.17;5.90;;;11.30;98.30;;;;;;5197267;22;20427;-84
2021/09/24 05:44:23;;;;;;;15.77;5.00;;;11.20;98.30;;;;;;5199549;22;20415;-83
2021/09/24 05:46:27;;;;;;;25.53;6.63;;;11.30;98.30;;;;;;5192927;22;20474;-83
2021/09/24 05:48:30;;;;;;;15.73;4.47;;;11.30;98.30;;;;;;5192874;22;20472;-84
2021/09/24 05:50:33;;;;;;;24.77;6.60;;;11.30;98.30;;;;;;5193416;22;20733;-83
2021/09/24 05:52:36;;;;;;;18.40;7.00;;;11.30;98.30;;;;;;5193790;22;20423;-83
2021/09/24 05:54:39;;;;;;;26.40;6.77;;;11.30;98.30;;;;;;5201488;22;20427;-82
2021/09/24 05:56:42;;;;;;;25.80;6.30;;;11.40;98.30;;;;;;5193117;22;20434;-84
2021/09/24 05:58:45;;;;;;;19.13;5.40;;;11.50;98.30;;;;;;5193750;22;20451;-84
2021/09/24 06:00:48;;;;;;;26.63;7.67;;;11.50;98.30;;;;;;5193412;22;20430;-83
2021/09/24 06:02:53;;;;;;;21.90;6.50;;;11.60;98.30;;;;;;5202058;22;20422;-83
2021/09/24 06:04:56;;;;;;;19.87;5.17;;;11.60;98.30;;;;;;5202909;22;20472;-82
2021/09/24 06:06:59;;;;;;;23.40;5.27;;;11.70;98.30;;;;;;5193588;22;20927;-84
2021/09/24 06:09:04;;;;;;;13.00;4.67;;;11.70;98.30;;;;;;5191928;22;20449;-82
2021/09/24 06:11:07;;;;;;;19.87;5.37;;;11.70;98.30;;;;;;5201130;22;20445;-83
2021/09/24 06:13:10;;;;;;;23.70;5.40;;;11.80;98.30;;;;;;5192382;22;20434;-82
2021/09/24 06:15:15;;;;;;;18.90;5.60;;;11.80;98.30;;;;;;5192283;22;20835;-82
2021/09/24 06:17:18;;;;;;;17.80;6.60;;;11.80;98.30;;;;;;5191866;22;20430;-83
2021/09/24 06:19:22;;;;;;;20.33;4.53;;;11.90;98.30;;;;;;5199777;22;20446;-83
2021/09/24 06:21:25;;;;;;;13.07;5.57;;;11.90;98.30;;;;;;5191719;22;20496;-82
2021/09/24 06:23:28;;;;;;;18.40;4.90;;;11.90;98.30;;;;;;5200678;22;20427;-83
2021/09/24 06:25:31;;;;;;;15.33;4.93;;;11.90;98.30;;;;;;5191630;22;20426;-83
2021/09/24 06:27:36;;;;;;;18.87;4.90;;;12.00;98.30;;;;;;5200568;22;20422;-82
2021/09/24 06:29:38;;;;;;;19.97;6.23;;;12.00;98.30;;;;;;5191851;22;20764;-83
2021/09/24 06:31:41;;;;;;;16.87;5.10;;;12.10;98.30;;;;;;5200376;22;20422;-82
2021/09/24 06:33:44;;;;;;;17.27;4.60;;;12.10;98.30;;;;;;5200114;22;20422;-84
2021/09/24 06:35:48;;;;;;;15.47;4.00;;;12.20;98.30;;;;;;5192196;22;20431;-82
2021/09/24 06:37:51;;;;;;;21.23;6.17;;;12.20;98.30;;;;;;5192036;22;20923;-83
2021/09/24 06:39:54;;;;;;;13.83;4.60;;;12.20;98.30;;;;;;5191925;22;20451;-83
2021/09/24 06:41:57;;;;;;;22.10;5.17;;;12.20;98.30;;;;;;5191917;22;20431;-84
2021/09/24 06:44:00;;;;;;;20.33;5.20;;;12.30;98.30;;;;;;5200563;22;20416;-82
2021/09/24 06:46:11;;;;;;;20.10;4.93;;;12.20;98.30;;;;;;5200797;22;20891;-83
2021/09/24 06:48:15;;;;;;;18.27;5.03;;;12.20;98.30;;;;;;5192283;22;20868;-83
2021/09/24 06:50:22;;;;;;;14.13;5.50;;;12.30;98.30;;;;;;5194291;22;20422;-83
2021/09/24 06:52:28;;;;;;;15.30;5.37;;;12.40;98.30;;;;;;5191819;22;20511;-82
2021/09/24 06:54:31;;;;;;;17.50;5.63;;;12.40;98.30;;;;;;5200490;22;20498;-82
2021/09/24 06:56:34;;;;;;;18.10;4.57;;;12.40;98.30;;;;;;5192029;22;20431;-82
2021/09/24 06:58:37;;;;;;;17.23;6.70;;;12.40;98.30;;;;;;5191206;22;20505;-83
2021/09/24 07:00:40;;;;;;;17.90;5.30;;;12.50;98.30;;;;;;5200484;22;20429;-82
2021/09/24 07:02:43;;;;;;;21.17;5.60;;;12.50;98.30;;;;;;5200842;22;20430;-83
2021/09/24 07:04:46;;;;;;;15.20;4.90;;;12.50;98.30;;;;;;5193003;22;20490;-82
2021/09/24 07:06:49;;;;;;;19.87;5.20;;;12.50;98.30;;;;;;5201304;22;20816;-82
2021/09/24 07:08:53;;;;;;;14.47;4.63;;;12.60;98.30;;;;;;5201790;22;20442;-82
2021/09/24 07:10:56;;;;;;;13.50;4.83;;;12.60;98.30;;;;;;5201694;22;20426;-82
2021/09/24 07:12:59;;;;;;;12.10;4.90;;;12.60;98.30;;;;;;5193553;22;20492;-82
2021/09/24 07:15:02;;;;;;;16.87;4.80;;;12.60;98.30;;;;;;5193528;22;20437;-83
2021/09/24 07:17:05;;;;;;;19.00;8.50;;;12.60;98.30;;;;;;5202352;22;20429;-82
2021/09/24 07:19:08;;;;;;;13.67;4.90;;;12.60;98.30;;;;;;5201518;22;20958;-81
2021/09/24 07:21:11;;;;;;;18.17;5.57;;;12.60;98.30;;;;;;5192256;22;20912;-81
2021/09/24 07:23:14;;;;;;;16.00;6.23;;;12.60;98.30;;;;;;5201153;22;20426;-81
2021/09/24 07:25:18;;;;;;;14.47;5.50;;;12.70;98.30;;;;;;5192645;22;21169;-82
2021/09/24 07:27:22;;;;;;;15.57;6.50;;;12.70;98.30;;;;;;5201209;22;20415;-82
2021/09/24 07:29:24;;;;;;;13.93;5.90;;;12.70;98.30;;;;;;5192064;22;20454;-81
2021/09/24 07:31:28;;;;;;;17.83;7.27;;;12.70;98.30;;;;;;5201112;22;20481;-83
2021/09/24 07:33:31;;;;;;;14.03;5.70;;;12.70;98.30;;;;;;5200897;22;20423;-81
2021/09/24 07:35:34;;;;;;;17.07;6.13;;;12.80;98.30;;;;;;5200732;22;20454;-83
2021/09/24 07:37:37;;;;;;;12.77;5.83;;;12.80;98.30;;;;;;5201198;22;20419;-82
2021/09/24 07:39:41;;;;;;;16.13;6.70;;;12.80;98.30;;;;;;5200718;22;20461;-82
2021/09/24 07:41:45;;;;;;;19.90;6.43;;;12.80;98.30;;;;;;5201870;22;20426;-83
2021/09/24 07:43:51;;;;;;;17.47;7.30;;;12.90;98.30;;;;;;5202043;22;20488;-83
2021/09/24 07:45:55;;;;;;;19.27;7.70;;;12.90;98.30;;;;;;5202259;22;20423;-83
2021/09/24 07:47:58;;;;;;;18.60;7.03;;;13.00;98.30;;;;;;5193835;22;20944;-82
2021/09/24 07:50:01;;;;;;;17.23;6.53;;;13.00;98.30;;;;;;5192665;22;20466;-82
2021/09/24 07:52:05;;;;;;;16.73;6.40;;;13.10;98.30;;;;;;5201184;22;20803;-85
2021/09/24 07:54:08;;;;;;;22.40;8.00;;;13.10;98.30;;;;;;5194377;22;20435;-81
2021/09/24 07:56:11;;;;;;;19.27;7.27;;;13.10;98.30;;;;;;5192830;22;20665;-81
2021/09/24 07:58:15;;;;;;;18.40;6.50;;;13.10;98.30;;;;;;5201321;22;20441;-83
2021/09/24 08:00:18;;;;;;;16.13;7.67;;;13.20;98.30;;;;;;5200895;22;20425;-82
2021/09/24 08:02:21;;;;;;;12.93;7.20;;;13.20;98.30;;;;;;5200233;22;20415;-81
2021/09/24 08:04:25;;;;;;;15.50;8.43;;;13.20;98.30;;;;;;5191997;22;20509;-82
2021/09/24 08:06:27;;;;;;;21.83;8.10;;;13.40;98.30;;;;;;5200573;22;20795;-81
2021/09/24 08:08:31;;;;;;;19.27;6.80;;;13.40;98.30;;;;;;5200591;22;20438;-83
2021/09/24 08:10:34;;;;;;;19.03;7.80;;;13.50;98.30;;;;;;5200265;22;20476;-82
2021/09/24 08:12:37;;;;;;;16.90;8.03;;;13.70;98.30;;;;;;5192002;22;20430;-82
2021/09/24 08:14:50;;;;;;;18.67;7.03;;;13.80;98.30;;;;;;5191969;22;20422;-83
2021/09/24 08:16:53;;;;;;;13.20;7.03;;;13.90;98.30;;;;;;5201436;22;20411;-83
2021/09/24 08:18:58;;;;;;;19.63;8.97;;;13.90;98.30;;;;;;5191985;22;20451;-81
2021/09/24 08:21:02;;;;;;;16.20;8.20;;;14.00;98.30;;;;;;5192692;22;20988;-82
2021/09/24 08:23:05;;;;;;;13.77;6.00;;;14.10;98.30;;;;;;5200961;22;20919;-81
2021/09/24 08:25:10;;;;;;;12.67;6.30;;;14.20;98.30;;;;;;5201412;22;20771;-82
2021/09/24 08:27:13;;;;;;;18.70;6.30;;;14.30;98.30;;;;;;5201231;22;20423;-82
2021/09/24 08:29:16;;;;;;;10.93;6.23;;;14.30;98.30;;;;;;5192585;22;20522;-81
2021/09/24 08:31:20;;;;;;;20.30;7.20;;;14.40;98.30;;;;;;5201915;22;20971;-82
2021/09/24 08:33:23;;;;;;;12.60;5.87;;;14.40;98.30;;;;;;5192974;22;20427;-82
2021/09/24 08:35:26;;;;;;;14.47;5.70;;;14.50;98.30;;;;;;5200930;22;20423;-82
2021/09/24 08:37:29;;;;;;;15.80;6.27;;;14.60;98.30;;;;;;5192748;22;20427;-83
2021/09/24 08:39:32;;;;;;;11.10;4.93;;;14.60;98.30;;;;;;5192440;22;20451;-82
2021/09/24 08:41:35;;;;;;;18.43;5.17;;;14.60;98.30;;;;;;5200790;22;20806;-82
2021/09/24 08:43:40;;;;;;;10.50;5.00;;;14.60;98.30;;;;;;5192503;22;20431;-82
2021/09/24 08:45:47;;;;;;;16.63;5.13;;;14.60;98.30;;;;;;5192808;22;20434;-81
2021/09/24 08:47:51;;;;;;;10.07;4.83;;;14.60;98.30;;;;;;5201464;22;20787;-82
2021/09/24 08:49:54;;;;;;;9.63;5.43;;;14.60;98.30;;;;;;5192619;22;20830;-83
2021/09/24 08:51:57;;;;;;;11.97;5.43;;;14.60;98.30;;;;;;5201374;22;20429;-82
2021/09/24 08:54:01;;;;;;;7.07;5.17;;;14.70;98.30;;;;;;5192795;22;21058;-83
2021/09/24 08:56:04;;;;;;;11.03;5.33;;;14.70;98.30;;;;;;5192660;22;20487;-83
2021/09/24 08:58:08;;;;;;;9.00;5.30;;;14.80;98.30;;;;;;5201003;22;20470;-83
2021/09/24 09:00:13;;;;;;;11.43;5.23;;;14.80;98.30;;;;;;5194137;22;20447;-82
2021/09/24 09:02:16;;;;;;;16.37;5.37;;;14.90;98.30;;;;;;5201261;22;20442;-82
2021/09/24 09:04:34;;;;;;;14.07;7.70;;;14.90;98.30;;;;;;5192505;22;20426;-82
2021/09/24 09:06:37;;;;;;;12.00;4.80;;;15.00;98.30;;;;;;5201730;22;20451;-83
2021/09/24 09:08:40;;;;;;;16.83;5.60;;;15.00;98.30;;;;;;5192468;22;20451;-82
2021/09/24 09:10:52;;;;;;;10.33;5.57;;;15.10;98.30;;;;;;5200932;22;20419;-82
2021/09/24 09:12:55;;;;;;;9.00;5.20;;;15.00;98.30;;;;;;5192485;22;20767;-82
2021/09/24 09:15:00;;;;;;;11.90;5.07;;;15.10;98.30;;;;;;5192182;22;20454;-83
2021/09/24 09:17:31;;;;;;;10.97;4.90;;;15.10;98.30;;;;;;5192350;22;20928;-82
2021/09/24 09:21:47;;;;;;;8.03;5.13;;;15.20;98.30;;;;;;5178931;22;20470;-82
2021/09/24 09:23:52;;;;;;;8.93;6.37;;;15.20;98.30;;;;;;5181567;23;20431;-82
2021/09/24 09:25:58;;;;;;;11.20;6.10;;;15.20;98.30;;;;;;5181512;23;20455;-82
2021/09/24 09:28:05;;;;;;;11.40;5.40;;;15.20;98.30;;;;;;5172264;23;20428;-82
2021/09/24 09:30:12;;;;;;;10.00;5.80;;;15.20;98.30;;;;;;5180394;22;20440;-82
2021/09/24 09:32:23;;;;;;;8.30;4.60;;;15.30;98.30;;;;;;5172686;23;20761;-82
2021/09/24 09:34:33;;;;;;;8.20;5.30;;;15.30;98.30;;;;;;5179701;23;20424;-82
2021/09/24 09:36:40;;;;;;;8.60;5.77;;;15.30;98.30;;;;;;5181360;23;20416;-82
2021/09/24 09:38:44;;;;;;;9.80;5.57;;;15.30;98.30;;;;;;5180595;22;20423;-82
2021/09/24 09:40:51;;;;;;;7.60;5.33;;;15.30;98.30;;;;;;5172623;23;20439;-82
2021/09/24 09:42:59;;;;;;;8.60;5.07;;;15.30;98.30;;;;;;5172194;23;20678;-82
2021/09/24 09:45:02;;;;;;;17.33;6.37;;;15.30;98.30;;;;;;5180575;23;20534;-82
2021/09/24 09:47:05;;;;;;;10.60;5.70;;;15.30;98.30;;;;;;5181205;23;20420;-82
2021/09/24 09:49:11;;;;;;;9.37;5.47;;;15.30;98.30;;;;;;5179954;22;20440;-82
2021/09/24 09:51:23;;;;;;;13.03;6.03;;;15.30;98.30;;;;;;5181413;23;20448;-82
2021/09/24 09:53:27;;;;;;;11.10;5.63;;;15.30;98.30;;;;;;5179857;23;20404;-82
2021/09/24 09:55:33;;;;;;;11.80;5.70;;;15.30;98.30;;;;;;5180307;23;20427;-82
2021/09/24 09:57:37;;;;;;;10.57;5.50;;;15.30;98.30;;;;;;5180705;23;20803;-82
2021/09/24 09:59:40;;;;;;;16.40;5.80;;;15.30;98.30;;;;;;5179320;22;20454;-82
2021/09/24 10:04:02;;;;;;;10.90;5.70;;;15.40;98.30;;;;;;5181974;23;20808;-82
2021/09/24 10:06:21;;;;;;;8.17;5.17;;;15.40;98.30;;;;;;5171683;23;20843;-82
2021/09/24 10:08:26;;;;;;;7.17;5.30;;;15.40;98.30;;;;;;5172424;23;20431;-82
2021/09/24 10:10:32;;;;;;;14.90;5.30;;;15.40;98.30;;;;;;5180294;22;20497;-82
2021/09/24 10:12:37;;;;;;;8.97;5.10;;;15.50;98.30;;;;;;5180248;23;20427;-82
2021/09/24 10:14:40;;;;;;;12.57;5.37;;;15.50;98.30;;;;;;5179925;23;20692;-82
2021/09/24 10:16:45;;;;;;;7.77;4.83;;;15.50;98.30;;;;;;5179690;23;20651;-82
2021/09/24 10:18:48;;;;;;;10.20;5.50;;;15.50;98.30;;;;;;5179355;22;20502;-82
2021/09/24 10:20:52;;;;;;;8.10;4.80;;;15.60;98.30;;;;;;5170735;22;20756;-82
2021/09/24 10:22:55;;;;;;;10.77;5.40;;;15.50;98.30;;;;;;5180178;23;20487;-82
2021/09/24 10:24:59;;;;;;;13.13;5.70;;;15.50;98.30;;;;;;5179959;23;20496;-82
2021/09/24 10:27:06;;;;;;;8.20;5.27;;;15.50;98.30;;;;;;5171936;23;20914;-82
2021/09/24 10:29:13;;;;;;;10.60;5.40;;;15.60;98.30;;;;;;5171148;22;20506;-82
2021/09/24 10:31:18;;;;;;;15.87;7.47;;;15.60;98.30;;;;;;5179903;23;20428;-82
2021/09/24 10:33:21;;;;;;;7.97;6.17;;;15.60;98.30;;;;;;5180764;23;20404;-82
2021/09/24 10:35:45;;;;;;;9.47;5.63;;;15.60;98.30;;;;;;5179840;23;20522;-82
2021/09/24 10:37:51;;;;;;;9.60;6.03;;;15.60;98.30;;;;;;5172722;23;20435;-82
2021/09/24 10:39:59;;;;;;;10.10;5.23;;;15.60;98.30;;;;;;5179730;22;20441;-82
2021/09/24 10:42:23;;;;;;;17.13;6.20;;;15.60;98.30;;;;;;5179850;23;20764;-82